Terminal Aerodrome Forecast
Issued by NWS Binghamton, NY

Home | Current Version | Previous Version | Text Only | Print | Product List | Glossary On
Versions: 1 2 3 4 5 6 7 8 9 10 11 12 13 14 15 16 17 18 19 20 21
143
FTUS41 KBGM 202333
TAFAVP
TAF
KAVP 202333Z 2100/2124 VRB03KT P6SM SCT035 BKN100
     FM210800 VRB03KT 2SM BR SCT015 BKN250
     FM211400 29008KT P6SM SCT050=

USA.gov is the U.S. government's official web portal to all federal, state and local government web resources and services.